createdAt,value
2023-05-17T00:00:21.488Z,9.48
2023-05-17T00:03:09.215Z,9.85
2023-05-17T00:05:57.164Z,8.77
2023-05-17T00:08:44.956Z,9.35
2023-05-17T00:11:32.775Z,7.72
2023-05-17T00:14:20.446Z,9.60
2023-05-17T00:17:08.198Z,9.45
2023-05-17T00:19:56.196Z,8.70
2023-05-17T00:22:45.904Z,9.23
2023-05-17T00:25:33.609Z,8.40
2023-05-17T00:28:21.647Z,8.70
2023-05-17T00:31:09.372Z,8.82
2023-05-17T00:33:57.143Z,8.63
2023-05-17T00:36:44.773Z,9.57
2023-05-17T00:39:32.450Z,8.73
2023-05-17T00:42:20.221Z,8.13
2023-05-17T00:45:08.954Z,8.77
2023-05-17T00:47:57.529Z,8.18
2023-05-17T00:50:45.499Z,9.07
2023-05-17T00:53:33.994Z,10.50
2023-05-17T00:56:24.816Z,9.73
2023-05-17T00:59:14.275Z,10.75
2023-05-17T01:02:03.042Z,10.25
2023-05-17T01:04:51.312Z,10.23
2023-05-17T01:07:39.058Z,10.15
2023-05-17T01:10:38.157Z,11.48
2023-05-17T01:13:32.472Z,10.93
2023-05-17T01:16:42.709Z,11.00
2023-05-17T01:19:40.787Z,10.10
2023-05-17T01:23:22.608Z,10.85
2023-05-17T01:26:24.823Z,9.23
2023-05-17T01:29:14.690Z,9.70
2023-05-17T01:32:03.906Z,9.27
2023-05-17T01:34:51.967Z,9.73
2023-05-17T01:37:40.123Z,8.68
2023-05-17T01:40:28.792Z,8.50
2023-05-17T01:43:52.890Z,9.90
2023-05-17T01:46:43.319Z,9.43
2023-05-17T01:49:33.006Z,8.50
2023-05-17T01:52:39.548Z,8.68
2023-05-17T01:55:54.327Z,8.55
2023-05-17T01:58:49.094Z,7.45
2023-05-17T02:01:37.371Z,7.70
2023-05-17T02:04:25.266Z,7.05
2023-05-17T02:07:13.617Z,6.45
2023-05-17T02:10:02.185Z,5.88
2023-05-17T02:12:50.019Z,5.43
2023-05-17T02:15:37.757Z,5.25
2023-05-17T02:18:27.152Z,4.40
2023-05-17T02:21:17.290Z,4.15
2023-05-17T02:24:05.462Z,3.90
2023-05-17T02:26:53.355Z,4.50
2023-05-17T02:29:41.154Z,4.32
2023-05-17T02:32:29.483Z,4.72
2023-05-17T02:35:18.147Z,3.17
2023-05-17T02:38:09.042Z,3.90
2023-05-17T02:40:56.780Z,4.15
2023-05-17T02:43:45.744Z,5.45
2023-05-17T02:46:34.052Z,3.60
2023-05-17T02:49:22.323Z,3.72
2023-05-17T02:52:10.800Z,3.60
2023-05-17T02:54:58.563Z,4.43
2023-05-17T02:57:46.603Z,4.57
2023-05-17T03:00:37.546Z,4.68
2023-05-17T03:03:25.524Z,4.00
2023-05-17T03:06:13.584Z,4.00
2023-05-17T03:09:02.257Z,3.97
2023-05-17T03:11:50.695Z,4.13
2023-05-17T03:14:43.061Z,3.35
2023-05-17T03:17:31.782Z,4.47
2023-05-17T03:20:20.838Z,4.03
2023-05-17T03:23:09.796Z,3.53
2023-05-17T03:26:07.238Z,3.65
2023-05-17T03:29:05.208Z,3.47
2023-05-17T03:31:53.378Z,3.53
2023-05-17T03:34:41.137Z,3.70
2023-05-17T03:37:28.927Z,3.38
2023-05-17T03:40:16.689Z,2.63
2023-05-17T03:43:05.711Z,2.90
2023-05-17T03:45:53.710Z,1.92
2023-05-17T03:48:44.766Z,2.50
2023-05-17T03:51:33.444Z,2.78
2023-05-17T03:54:21.682Z,2.33
2023-05-17T03:57:18.547Z,2.65
2023-05-17T04:00:10.624Z,1.80
2023-05-17T04:03:02.406Z,2.35
2023-05-17T04:05:51.087Z,2.90
2023-05-17T04:08:39.116Z,2.65
2023-05-17T04:11:27.863Z,2.28
2023-05-17T04:14:18.699Z,2.22
2023-05-17T04:17:08.694Z,1.50
2023-05-17T04:19:56.737Z,1.77
2023-05-17T04:22:45.145Z,1.83
2023-05-17T04:25:33.118Z,2.03
2023-05-17T04:28:23.652Z,1.83
2023-05-17T04:31:11.802Z,2.00
2023-05-17T04:33:59.726Z,1.90
2023-05-17T04:36:47.903Z,1.58
2023-05-17T04:39:41.628Z,2.45
2023-05-17T04:42:29.591Z,1.77
2023-05-17T04:45:19.908Z,1.95
2023-05-17T04:48:13.158Z,1.92
2023-05-17T04:51:07.752Z,1.60
2023-05-17T04:53:56.698Z,2.15
2023-05-17T04:56:44.440Z,2.67
2023-05-17T04:59:37.042Z,1.73
2023-05-17T05:02:25.896Z,2.00
2023-05-17T05:05:14.267Z,2.28
2023-05-17T05:08:04.096Z,2.63
2023-05-17T05:10:52.753Z,2.22
2023-05-17T05:13:45.762Z,2.55
2023-05-17T05:16:34.181Z,2.90
2023-05-17T05:19:22.193Z,3.28
2023-05-17T05:22:13.059Z,2.42
2023-05-17T05:25:01.741Z,2.65
2023-05-17T05:27:49.781Z,2.00
2023-05-17T05:30:37.936Z,2.33
2023-05-17T05:33:26.643Z,2.33
2023-05-17T05:36:14.493Z,2.45
2023-05-17T05:39:02.467Z,2.22
2023-05-17T05:41:54.738Z,1.98
2023-05-17T05:44:42.560Z,1.77
2023-05-17T05:47:30.893Z,2.42
2023-05-17T05:50:19.193Z,2.58
2023-05-17T05:53:18.111Z,2.08
2023-05-17T05:56:12.067Z,1.83
2023-05-17T05:59:00.931Z,2.40
2023-05-17T06:01:52.273Z,2.25
2023-05-17T06:04:45.061Z,2.58
2023-05-17T06:07:33.550Z,2.78
2023-05-17T06:10:21.413Z,2.42
2023-05-17T06:13:09.194Z,1.90
2023-05-17T06:15:56.983Z,2.00
2023-05-17T06:18:44.821Z,2.17
2023-05-17T06:21:32.711Z,2.10
2023-05-17T06:24:21.069Z,2.20
2023-05-17T06:27:08.976Z,1.70
2023-05-17T06:29:56.697Z,2.55
2023-05-17T06:32:44.585Z,2.33
2023-05-17T06:35:43.747Z,1.70
2023-05-17T06:38:40.102Z,2.50
2023-05-17T06:41:30.225Z,2.15
2023-05-17T06:44:18.238Z,2.83
2023-05-17T06:47:05.904Z,1.95
2023-05-17T06:49:53.680Z,2.05
2023-05-17T06:52:41.564Z,1.75
2023-05-17T06:55:31.524Z,2.13
2023-05-17T06:58:22.824Z,1.95
2023-05-17T07:01:11.145Z,1.98
2023-05-17T07:03:59.035Z,2.25
2023-05-17T07:06:47.237Z,2.38
2023-05-17T07:09:34.972Z,2.45
2023-05-17T07:12:22.848Z,2.92
2023-05-17T07:15:11.069Z,2.40
2023-05-17T07:18:05.357Z,2.65
2023-05-17T07:20:53.228Z,2.90
2023-05-17T07:23:41.037Z,2.70
2023-05-17T07:26:28.811Z,2.65
2023-05-17T07:29:19.212Z,2.15
2023-05-17T07:32:07.450Z,2.72
2023-05-17T07:34:55.162Z,2.47
2023-05-17T07:37:43.192Z,3.20
2023-05-17T07:40:30.969Z,3.10
2023-05-17T07:43:18.874Z,2.03
2023-05-17T07:46:06.704Z,2.38
2023-05-17T07:48:57.362Z,2.17
2023-05-17T07:51:48.877Z,1.67
2023-05-17T07:54:37.574Z,2.65
2023-05-17T07:57:25.398Z,3.28
2023-05-17T08:00:15.612Z,3.35
2023-05-17T08:03:04.275Z,2.93
2023-05-17T08:05:53.190Z,2.47
2023-05-17T08:08:45.321Z,2.90
2023-05-17T08:14:27.150Z,2.35
2023-05-17T08:17:15.000Z,2.58
2023-05-17T08:20:03.214Z,3.05
2023-05-17T08:22:51.283Z,2.30
2023-05-17T08:25:50.466Z,2.92
2023-05-17T08:28:41.050Z,2.97
2023-05-17T08:31:32.698Z,2.90
2023-05-17T08:34:23.914Z,2.38
2023-05-17T08:37:12.669Z,2.95
2023-05-17T08:40:01.968Z,3.10
2023-05-17T08:42:51.653Z,2.22
2023-05-17T08:45:42.590Z,2.80
2023-05-17T08:48:31.694Z,2.42
2023-05-17T08:51:29.432Z,2.47
2023-05-17T08:54:19.381Z,3.03
2023-05-17T08:57:09.736Z,3.70
2023-05-17T09:00:01.169Z,4.20
2023-05-17T09:02:49.932Z,4.88
2023-05-17T09:05:38.111Z,3.90
2023-05-17T09:08:46.791Z,6.57
2023-05-17T09:11:34.570Z,17.70
2023-05-17T09:14:22.412Z,7.72
2023-05-17T09:17:14.929Z,3.25
2023-05-17T09:20:02.984Z,3.47
2023-05-17T09:22:52.052Z,3.40
2023-05-17T09:25:48.513Z,3.13
2023-05-17T09:28:42.711Z,2.70
2023-05-17T09:31:30.472Z,2.70
2023-05-17T09:34:21.301Z,2.70
2023-05-17T09:37:18.559Z,3.13
2023-05-17T09:40:10.021Z,3.20
2023-05-17T09:42:59.308Z,2.63
2023-05-17T09:45:56.982Z,2.67
2023-05-17T09:48:46.922Z,3.25
2023-05-17T09:51:48.689Z,2.63
2023-05-17T09:54:41.460Z,2.45
2023-05-17T09:57:37.319Z,2.20
2023-05-17T10:00:25.214Z,2.42
2023-05-17T10:03:14.135Z,2.22
2023-05-17T10:06:06.182Z,3.72
2023-05-17T10:08:57.819Z,2.80
2023-05-17T10:11:47.470Z,3.25
2023-05-17T10:14:38.240Z,3.75
2023-05-17T10:17:32.639Z,3.60
2023-05-17T10:20:21.760Z,3.22
2023-05-17T10:23:11.525Z,2.67
2023-05-17T10:26:00.054Z,3.38
2023-05-17T10:29:02.427Z,2.90
2023-05-17T10:31:53.225Z,3.63
2023-05-17T10:34:41.357Z,3.15
2023-05-17T10:37:33.244Z,3.08
2023-05-17T10:40:23.993Z,2.70
2023-05-17T10:43:12.593Z,3.63
2023-05-17T10:46:00.686Z,2.88
2023-05-17T10:48:52.429Z,3.33
2023-05-17T10:51:43.331Z,3.20
2023-05-17T10:54:36.246Z,2.97
2023-05-17T10:57:50.009Z,3.55
2023-05-17T11:00:42.222Z,3.40
2023-05-17T11:03:30.576Z,4.25
2023-05-17T11:06:25.325Z,3.40
2023-05-17T11:09:17.839Z,3.38
2023-05-17T11:14:56.670Z,3.47
2023-05-17T11:17:51.052Z,3.88
2023-05-17T11:20:39.250Z,3.90
2023-05-17T11:23:31.428Z,3.58
2023-05-17T11:26:31.308Z,3.60
2023-05-17T11:29:19.147Z,3.45
2023-05-17T11:32:11.108Z,3.15
2023-05-17T11:35:02.734Z,3.55
2023-05-17T11:37:54.008Z,3.33
2023-05-17T11:40:42.957Z,3.67
2023-05-17T11:43:35.912Z,3.17
2023-05-17T11:46:25.210Z,4.15
2023-05-17T11:49:33.918Z,4.38
2023-05-17T11:52:29.377Z,2.97
2023-05-17T11:55:17.526Z,3.75
2023-05-17T11:58:10.392Z,4.45
2023-05-17T12:01:01.864Z,4.57
2023-05-17T12:03:59.647Z,3.90
2023-05-17T12:06:47.710Z,3.72
2023-05-17T12:09:42.105Z,3.28
2023-05-17T12:12:32.840Z,3.25
2023-05-17T12:15:21.207Z,3.25
2023-05-17T12:18:09.064Z,3.65
2023-05-17T12:20:58.932Z,3.10
2023-05-17T12:23:50.306Z,3.38
2023-05-17T12:26:51.476Z,3.85
2023-05-17T12:29:42.236Z,4.47
2023-05-17T12:32:29.979Z,3.45
2023-05-17T12:35:17.911Z,2.83
2023-05-17T12:38:05.834Z,3.33
2023-05-17T12:40:54.230Z,2.90
2023-05-17T12:43:46.711Z,3.58
2023-05-17T12:46:34.575Z,4.25
2023-05-17T12:49:22.497Z,3.70
2023-05-17T12:52:11.111Z,4.00
2023-05-17T12:55:05.501Z,3.58
2023-05-17T12:57:54.450Z,4.38
2023-05-17T13:00:57.286Z,5.32
2023-05-17T13:03:51.606Z,4.63
2023-05-17T13:06:52.604Z,5.03
2023-05-17T13:09:48.322Z,6.35
2023-05-17T13:12:39.457Z,4.95
2023-05-17T13:15:29.424Z,5.43
2023-05-17T13:18:18.457Z,5.88
2023-05-17T13:21:06.483Z,4.85
2023-05-17T13:23:55.197Z,4.90
2023-05-17T13:26:43.336Z,5.38
2023-05-17T13:29:39.689Z,4.07
2023-05-17T13:32:28.393Z,3.78
2023-05-17T13:35:16.357Z,2.78
2023-05-17T13:38:04.140Z,3.38
2023-05-17T13:40:52.172Z,3.95
2023-05-17T13:43:39.973Z,4.70
2023-05-17T13:46:30.037Z,4.38
2023-05-17T13:49:18.082Z,4.72
2023-05-17T13:52:09.222Z,5.05
2023-05-17T13:54:58.169Z,5.97
2023-05-17T13:57:46.124Z,4.70
2023-05-17T14:00:33.974Z,5.60
2023-05-17T14:03:21.916Z,5.13
2023-05-17T14:06:09.847Z,6.05
2023-05-17T14:08:59.521Z,7.72
2023-05-17T14:11:47.366Z,4.45
2023-05-17T14:14:35.235Z,2.95
2023-05-17T14:17:23.014Z,3.95
2023-05-17T14:20:11.445Z,4.50
2023-05-17T14:23:00.176Z,4.13
2023-05-17T14:25:51.198Z,2.70
2023-05-17T14:28:42.235Z,2.90
2023-05-17T14:31:32.580Z,2.30
2023-05-17T14:34:20.486Z,2.90
2023-05-17T14:37:08.841Z,2.45
2023-05-17T14:40:05.912Z,2.00
2023-05-17T14:42:56.332Z,2.58
2023-05-17T14:45:46.541Z,2.35
2023-05-17T14:48:38.777Z,3.38
2023-05-17T14:51:30.570Z,2.42
2023-05-17T14:54:20.096Z,2.53
2023-05-17T14:57:12.166Z,2.20
2023-05-17T15:00:01.196Z,2.88
2023-05-17T15:02:51.190Z,2.58
2023-05-17T15:05:39.199Z,2.75
2023-05-17T15:08:27.943Z,2.28
2023-05-17T15:11:18.675Z,2.50
2023-05-17T15:14:06.942Z,1.55
2023-05-17T15:16:54.708Z,1.42
2023-05-17T15:19:42.975Z,1.65
2023-05-17T15:22:30.946Z,1.17
2023-05-17T15:25:18.889Z,1.27
2023-05-17T15:28:06.696Z,1.30
2023-05-17T15:31:06.873Z,0.30
2023-05-17T15:33:56.401Z,0.63
2023-05-17T15:36:44.151Z,0.35
2023-05-17T15:39:31.822Z,0.50
2023-05-17T15:42:22.400Z,1.20
2023-05-17T15:45:10.653Z,0.60
2023-05-17T15:47:58.565Z,0.63
2023-05-17T15:50:47.369Z,0.40
2023-05-17T15:53:38.243Z,0.30
2023-05-17T15:56:26.122Z,0.60
2023-05-17T15:59:14.424Z,0.35
2023-05-17T16:02:02.161Z,0.60
2023-05-17T16:04:49.835Z,0.80
2023-05-17T16:07:39.922Z,0.80
2023-05-17T16:10:30.923Z,0.63
2023-05-17T16:13:30.955Z,0.85
2023-05-17T16:16:18.661Z,0.65
2023-05-17T16:19:06.592Z,0.22
2023-05-17T16:21:54.649Z,0.88
2023-05-17T16:24:43.609Z,0.80
2023-05-17T16:27:36.638Z,0.50
2023-05-17T16:30:24.399Z,1.10
2023-05-17T16:33:14.720Z,0.50
2023-05-17T16:36:07.664Z,0.88
2023-05-17T16:38:55.428Z,0.93
2023-05-17T16:41:43.211Z,1.20
2023-05-17T16:44:33.961Z,0.73
2023-05-17T16:47:26.939Z,0.65
2023-05-17T16:50:14.592Z,0.30
2023-05-17T16:53:06.117Z,0.45
2023-05-17T16:56:04.132Z,0.50
2023-05-17T16:58:55.365Z,1.15
2023-05-17T17:01:43.476Z,1.08
2023-05-17T17:04:33.828Z,0.90
2023-05-17T17:07:21.637Z,0.80
2023-05-17T17:10:09.836Z,0.75
2023-05-17T17:13:08.481Z,1.10
2023-05-17T17:15:56.302Z,0.47
2023-05-17T17:18:47.444Z,0.85
2023-05-17T17:21:37.732Z,1.27
2023-05-17T17:24:49.368Z,1.17
2023-05-17T17:27:37.186Z,0.60
2023-05-17T17:30:25.024Z,1.08
2023-05-17T17:33:12.827Z,0.55
2023-05-17T17:36:00.705Z,0.80
2023-05-17T17:38:48.460Z,1.52
2023-05-17T17:41:36.154Z,1.50
2023-05-17T17:44:23.920Z,1.10
2023-05-17T17:47:11.811Z,1.20
2023-05-17T17:49:59.613Z,1.25
2023-05-17T17:52:47.318Z,0.93
2023-05-17T17:55:35.096Z,1.65
2023-05-17T17:58:22.898Z,1.25
2023-05-17T18:01:10.782Z,1.25
2023-05-17T18:03:59.170Z,1.65
2023-05-17T18:06:48.976Z,1.42
2023-05-17T18:09:42.501Z,1.45
2023-05-17T18:12:30.322Z,2.42
2023-05-17T18:15:20.926Z,2.58
2023-05-17T18:18:08.748Z,1.05
2023-05-17T18:20:56.900Z,2.50
2023-05-17T18:23:44.628Z,2.13
2023-05-17T18:26:32.410Z,2.97
2023-05-17T18:29:23.543Z,2.17
2023-05-17T18:32:11.537Z,2.38
2023-05-17T18:34:59.345Z,2.60
2023-05-17T18:37:47.110Z,2.10
2023-05-17T18:40:34.874Z,2.50
2023-05-17T18:43:22.569Z,2.78
2023-05-17T18:46:10.324Z,2.67
2023-05-17T18:48:58.303Z,2.78
2023-05-17T18:51:48.860Z,3.55
2023-05-17T18:54:45.608Z,2.75
2023-05-17T18:57:33.317Z,3.15
2023-05-17T19:00:21.425Z,2.63
2023-05-17T19:03:09.299Z,2.53
2023-05-17T19:05:57.123Z,2.88
2023-05-17T19:08:44.875Z,3.38
2023-05-17T19:11:32.835Z,2.90
2023-05-17T19:14:20.931Z,3.05
2023-05-17T19:17:10.439Z,3.08
2023-05-17T19:19:58.352Z,2.78
2023-05-17T19:22:46.111Z,2.70
2023-05-17T19:25:33.879Z,2.80
2023-05-17T19:28:22.075Z,3.30
2023-05-17T19:31:10.007Z,2.17
2023-05-17T19:34:02.072Z,2.75
2023-05-17T19:39:37.731Z,2.33
2023-05-17T19:42:25.631Z,3.35
2023-05-17T19:45:13.366Z,3.45
2023-05-17T19:48:18.935Z,2.58
2023-05-17T19:51:06.999Z,2.47
2023-05-17T19:53:54.839Z,2.55
2023-05-17T19:56:42.619Z,2.70
2023-05-17T19:59:30.392Z,3.53
2023-05-17T20:02:18.045Z,3.53
2023-05-17T20:05:07.091Z,3.22
2023-05-17T20:07:55.564Z,2.78
2023-05-17T20:10:43.393Z,3.20
2023-05-17T20:13:31.729Z,4.22
2023-05-17T20:16:19.577Z,3.70
2023-05-17T20:19:07.447Z,2.97
2023-05-17T20:21:55.322Z,2.97
2023-05-17T20:24:44.411Z,2.72
2023-05-17T20:27:32.174Z,2.42
2023-05-17T20:30:19.905Z,3.88
2023-05-17T20:33:10.402Z,3.17
2023-05-17T20:35:59.243Z,2.65
2023-05-17T20:38:47.177Z,3.08
2023-05-17T20:50:00.061Z,3.53
2023-05-17T20:52:50.935Z,3.53
2023-05-17T20:55:38.735Z,2.88
2023-05-17T20:58:29.204Z,3.42
2023-05-17T21:01:17.006Z,3.13
2023-05-17T21:04:05.075Z,3.30
2023-05-17T21:07:05.033Z,4.10
2023-05-17T21:09:52.752Z,4.43
2023-05-17T21:12:40.759Z,3.58
2023-05-17T21:15:28.497Z,3.92
2023-05-17T21:18:16.526Z,4.63
2023-05-17T21:21:04.550Z,4.68
2023-05-17T21:23:52.515Z,4.57
2023-05-17T21:26:41.250Z,4.57
2023-05-17T21:29:29.254Z,5.53
2023-05-17T21:32:19.201Z,4.57
2023-05-17T21:35:07.179Z,5.03
2023-05-17T21:37:54.874Z,7.15
2023-05-17T21:40:42.894Z,6.40
2023-05-17T21:43:33.592Z,5.57
2023-05-17T21:46:21.433Z,6.25
2023-05-17T21:49:09.173Z,5.75
2023-05-17T21:51:56.926Z,5.68
2023-05-17T21:54:44.833Z,7.35
2023-05-17T21:57:36.561Z,6.28
2023-05-17T22:00:29.054Z,6.57
2023-05-17T22:03:17.021Z,6.07
2023-05-17T22:06:05.036Z,6.95
2023-05-17T22:08:52.974Z,6.95
2023-05-17T22:11:40.772Z,7.13
2023-05-17T22:14:33.597Z,6.97
2023-05-17T22:17:35.027Z,6.50
2023-05-17T22:20:30.819Z,6.82
2023-05-17T22:23:21.917Z,7.10
2023-05-17T22:26:09.876Z,7.40
2023-05-17T22:28:59.873Z,6.47
2023-05-17T22:31:47.658Z,7.32
2023-05-17T22:34:35.514Z,7.47
2023-05-17T22:37:23.777Z,6.78
2023-05-17T22:40:11.785Z,7.70
2023-05-17T22:42:59.760Z,6.57
2023-05-17T22:45:47.828Z,7.43
2023-05-17T22:48:37.777Z,7.65
2023-05-17T22:51:26.450Z,6.93
2023-05-17T22:54:14.205Z,6.93
2023-05-17T22:57:02.324Z,7.78
2023-05-17T22:59:50.084Z,6.80
2023-05-17T23:02:37.893Z,8.20
2023-05-17T23:05:25.648Z,7.35
2023-05-17T23:08:16.473Z,7.30
2023-05-17T23:11:05.116Z,7.05
2023-05-17T23:13:52.801Z,7.90
2023-05-17T23:16:40.596Z,7.53
2023-05-17T23:19:29.835Z,8.38
2023-05-17T23:22:18.087Z,8.85
2023-05-17T23:25:06.790Z,9.27
2023-05-17T23:27:54.628Z,8.13
2023-05-17T23:30:42.464Z,9.05
2023-05-17T23:33:31.428Z,7.28
2023-05-17T23:36:21.947Z,7.20
2023-05-17T23:39:09.944Z,8.27
2023-05-17T23:41:58.489Z,6.72
2023-05-17T23:44:49.068Z,7.22
2023-05-17T23:47:41.205Z,7.68
2023-05-17T23:50:29.016Z,6.78
2023-05-17T23:53:18.817Z,6.68
2023-05-17T23:56:06.854Z,6.35
2023-05-17T23:58:57.688Z,6.05
